createdAt,value
2019-06-25T00:01:32.986Z,5.30
2019-06-25T00:03:36.570Z,5.20
2019-06-25T00:05:40.162Z,5.93
2019-06-25T00:07:44.178Z,5.43
2019-06-25T00:09:47.789Z,4.87
2019-06-25T00:11:51.785Z,5.17
2019-06-25T00:13:55.367Z,5.07
2019-06-25T00:15:58.951Z,5.10
2019-06-25T00:18:02.651Z,5.10
2019-06-25T00:20:08.002Z,5.33
2019-06-25T00:22:11.817Z,5.00
2019-06-25T00:24:15.442Z,5.20
2019-06-25T00:26:19.217Z,5.30
2019-06-25T00:28:23.439Z,4.70
2019-06-25T00:30:27.073Z,4.80
2019-06-25T00:32:30.936Z,5.00
2019-06-25T00:34:34.567Z,5.00
2019-06-25T00:36:38.401Z,4.70
2019-06-25T00:38:42.046Z,5.10
2019-06-25T00:40:45.877Z,4.70
2019-06-25T00:42:49.507Z,4.97
2019-06-25T00:44:53.161Z,4.90
2019-06-25T00:46:56.934Z,4.17
2019-06-25T00:49:01.281Z,4.90
2019-06-25T00:51:05.006Z,4.73
2019-06-25T00:53:09.713Z,4.73
2019-06-25T00:55:14.355Z,4.50
2019-06-25T00:57:18.130Z,4.93
2019-06-25T00:59:21.912Z,4.70
2019-06-25T01:01:25.720Z,4.67
2019-06-25T01:03:30.984Z,4.97
2019-06-25T01:05:34.808Z,5.20
2019-06-25T01:07:38.513Z,4.70
2019-06-25T01:09:42.169Z,5.77
2019-06-25T01:11:46.272Z,5.53
2019-06-25T01:13:52.417Z,4.70
2019-06-25T01:15:58.020Z,4.90
2019-06-25T01:18:01.719Z,4.30
2019-06-25T01:20:07.713Z,5.33
2019-06-25T01:22:11.518Z,5.13
2019-06-25T01:24:15.258Z,5.20
2019-06-25T01:26:18.838Z,5.40
2019-06-25T01:28:22.687Z,4.90
2019-06-25T01:30:29.735Z,4.80
2019-06-25T01:32:31.666Z,4.70
2019-06-25T01:34:35.423Z,4.63
2019-06-25T01:36:39.087Z,4.90
2019-06-25T01:38:42.952Z,4.63
2019-06-25T01:40:46.728Z,4.60
2019-06-25T01:42:50.434Z,5.10
2019-06-25T01:44:54.265Z,4.90
2019-06-25T01:46:58.830Z,4.83
2019-06-25T01:49:02.525Z,5.03
2019-06-25T01:51:06.145Z,5.20
2019-06-25T01:53:10.071Z,5.70
2019-06-25T01:55:13.904Z,5.10
2019-06-25T01:57:17.729Z,4.40
2019-06-25T01:59:21.493Z,4.53
2019-06-25T02:01:25.263Z,4.73
2019-06-25T02:03:29.096Z,4.93
2019-06-25T02:05:32.743Z,5.03
2019-06-25T02:07:36.396Z,4.40
2019-06-25T02:09:40.160Z,4.57
2019-06-25T02:11:43.880Z,4.70
2019-06-25T02:13:47.665Z,5.13
2019-06-25T02:15:51.336Z,5.53
2019-06-25T02:17:55.064Z,4.40
2019-06-25T02:19:58.683Z,4.30
2019-06-25T02:22:02.339Z,5.40
2019-06-25T02:24:05.948Z,4.10
2019-06-25T02:26:09.676Z,4.73
2019-06-25T02:28:13.407Z,5.07
2019-06-25T02:30:18.947Z,5.00
2019-06-25T02:32:22.618Z,4.70
2019-06-25T02:34:26.417Z,5.00
2019-06-25T02:36:30.125Z,4.60
2019-06-25T02:38:33.783Z,4.67
2019-06-25T02:40:38.140Z,4.77
2019-06-25T02:42:41.870Z,4.67
2019-06-25T02:44:45.567Z,5.10
2019-06-25T02:46:49.294Z,5.03
2019-06-25T02:48:53.029Z,5.00
2019-06-25T02:50:56.748Z,5.00
2019-06-25T02:53:00.451Z,5.00
2019-06-25T02:55:05.882Z,5.13
2019-06-25T02:57:09.640Z,5.87
2019-06-25T02:59:13.384Z,4.57
2019-06-25T03:01:28.463Z,4.90
2019-06-25T03:03:22.412Z,5.30
2019-06-25T03:05:26.099Z,4.77
2019-06-25T03:07:29.749Z,5.40
2019-06-25T03:09:33.409Z,4.93
2019-06-25T03:11:37.105Z,5.20
2019-06-25T03:13:40.691Z,4.97
2019-06-25T03:15:44.460Z,5.50
2019-06-25T03:17:48.192Z,5.10
2019-06-25T03:19:51.837Z,4.77
2019-06-25T03:21:55.462Z,4.80
2019-06-25T03:23:59.673Z,5.63
2019-06-25T03:26:03.441Z,4.97
2019-06-25T03:28:07.156Z,5.40
2019-06-25T03:30:11.140Z,5.40
2019-06-25T03:32:14.859Z,5.80
2019-06-25T03:34:18.631Z,5.17
2019-06-25T03:36:22.254Z,5.40
2019-06-25T03:38:26.029Z,5.40
2019-06-25T03:40:29.876Z,5.00
2019-06-25T03:42:33.607Z,5.60
2019-06-25T03:44:37.333Z,5.10
2019-06-25T03:46:41.658Z,5.33
2019-06-25T03:48:45.390Z,6.20
2019-06-25T03:50:49.080Z,5.40
2019-06-25T03:52:52.662Z,6.00
2019-06-25T03:54:56.320Z,5.00
2019-06-25T03:57:00.112Z,5.80
2019-06-25T03:59:03.815Z,5.30
2019-06-25T04:01:07.683Z,5.40
2019-06-25T04:03:11.358Z,5.33
2019-06-25T04:05:15.178Z,5.73
2019-06-25T04:07:18.962Z,5.53
2019-06-25T04:09:22.547Z,6.30
2019-06-25T04:11:26.263Z,5.60
2019-06-25T04:13:30.079Z,5.40
2019-06-25T04:15:33.828Z,6.13
2019-06-25T04:17:37.529Z,5.40
2019-06-25T04:19:41.179Z,5.57
2019-06-25T04:21:44.808Z,5.17
2019-06-25T04:23:48.523Z,6.10
2019-06-25T04:25:52.397Z,6.60
2019-06-25T04:27:56.222Z,6.90
2019-06-25T04:29:59.872Z,6.03
2019-06-25T04:32:03.630Z,6.10
2019-06-25T04:34:07.603Z,5.27
2019-06-25T04:36:12.028Z,5.67
2019-06-25T04:38:15.787Z,6.40
2019-06-25T04:40:19.986Z,5.47
2019-06-25T04:42:23.681Z,5.80
2019-06-25T04:44:27.410Z,6.53
2019-06-25T04:46:31.567Z,5.63
2019-06-25T04:48:35.692Z,5.00
2019-06-25T04:50:39.802Z,5.30
2019-06-25T04:52:44.027Z,5.70
2019-06-25T04:54:48.142Z,5.33
2019-06-25T04:56:52.233Z,5.37
2019-06-25T04:58:56.342Z,5.37
2019-06-25T05:01:00.468Z,5.63
2019-06-25T05:03:04.539Z,5.67
2019-06-25T05:05:10.175Z,6.37
2019-06-25T05:07:14.825Z,4.80
2019-06-25T05:09:18.936Z,5.10
2019-06-25T05:11:23.145Z,5.00
2019-06-25T05:13:27.321Z,5.40
2019-06-25T05:15:33.203Z,6.40
2019-06-25T05:17:39.281Z,6.40
2019-06-25T05:19:43.404Z,6.23
2019-06-25T05:21:48.010Z,6.70
2019-06-25T05:23:53.801Z,6.30
2019-06-25T05:25:59.328Z,6.30
2019-06-25T05:28:03.745Z,5.83
2019-06-25T05:30:09.768Z,5.80
2019-06-25T05:32:13.746Z,6.07
2019-06-25T05:34:17.785Z,6.40
2019-06-25T05:36:35.923Z,6.83
2019-06-25T05:38:40.035Z,6.00
2019-06-25T05:40:44.148Z,5.87
2019-06-25T05:42:48.282Z,6.10
2019-06-25T05:44:52.359Z,5.93
2019-06-25T05:46:56.531Z,6.00
2019-06-25T05:49:00.678Z,6.67
2019-06-25T05:51:04.782Z,6.30
2019-06-25T05:53:08.999Z,5.83
2019-06-25T05:55:13.223Z,5.50
2019-06-25T05:57:17.246Z,6.07
2019-06-25T05:59:21.343Z,6.03
2019-06-25T06:01:26.984Z,6.60
2019-06-25T06:03:31.312Z,6.00
2019-06-25T06:05:35.309Z,5.40
2019-06-25T06:07:39.522Z,5.50
2019-06-25T06:09:43.743Z,6.37
2019-06-25T06:11:48.049Z,5.10
2019-06-25T06:13:52.470Z,5.53
2019-06-25T06:15:56.779Z,6.30
2019-06-25T06:18:03.940Z,6.00
2019-06-25T06:20:08.061Z,5.60
2019-06-25T06:22:12.174Z,5.90
2019-06-25T06:24:16.559Z,5.93
2019-06-25T06:26:20.588Z,5.70
2019-06-25T06:28:24.741Z,5.47
2019-06-25T06:30:31.571Z,6.13
2019-06-25T06:32:34.473Z,5.37
2019-06-25T06:34:38.756Z,5.33
2019-06-25T06:36:42.802Z,6.13
2019-06-25T06:38:46.805Z,6.27
2019-06-25T06:40:50.909Z,6.43
2019-06-25T06:42:55.022Z,5.83
2019-06-25T06:44:59.182Z,6.10
2019-06-25T06:47:03.150Z,6.00
2019-06-25T06:49:07.225Z,5.40
2019-06-25T06:51:11.153Z,6.43
2019-06-25T06:53:15.354Z,6.00
2019-06-25T06:55:19.470Z,5.30
2019-06-25T06:57:23.397Z,5.77
2019-06-25T06:59:27.789Z,5.90
2019-06-25T07:01:32.193Z,6.70
2019-06-25T07:03:48.883Z,5.37
2019-06-25T07:05:42.285Z,5.77
2019-06-25T07:07:47.026Z,5.57
2019-06-25T07:09:51.236Z,5.17
2019-06-25T07:11:55.423Z,4.87
2019-06-25T07:13:59.941Z,5.43
2019-06-25T07:16:04.102Z,5.10
2019-06-25T07:18:08.245Z,5.00
2019-06-25T07:20:13.079Z,4.93
2019-06-25T07:22:17.439Z,5.20
2019-06-25T07:24:21.711Z,5.67
2019-06-25T07:26:25.826Z,4.97
2019-06-25T07:28:30.024Z,5.33
2019-06-25T07:30:34.256Z,4.70
2019-06-25T07:32:42.135Z,5.00
2019-06-25T07:34:44.017Z,5.17
2019-06-25T07:36:48.012Z,5.03
2019-06-25T07:38:53.180Z,5.10
2019-06-25T07:40:57.269Z,6.93
2019-06-25T07:43:01.695Z,6.13
2019-06-25T07:45:06.998Z,8.07
2019-06-25T07:47:11.153Z,4.80
2019-06-25T07:49:15.233Z,5.90
2019-06-25T07:51:19.345Z,5.77
2019-06-25T07:53:23.537Z,5.07
2019-06-25T07:55:27.666Z,5.17
2019-06-25T07:57:31.871Z,5.50
2019-06-25T07:59:36.402Z,4.97
2019-06-25T08:01:40.612Z,6.13
2019-06-25T08:03:44.720Z,5.27
2019-06-25T08:05:48.735Z,5.27
2019-06-25T08:07:52.726Z,4.93
2019-06-25T08:09:56.939Z,5.60
2019-06-25T08:12:00.953Z,4.73
2019-06-25T08:14:06.107Z,5.17
2019-06-25T08:16:10.284Z,5.30
2019-06-25T08:18:14.407Z,5.63
2019-06-25T08:20:19.868Z,4.60
2019-06-25T08:22:28.221Z,5.60
2019-06-25T08:24:30.962Z,5.40
2019-06-25T08:26:35.188Z,6.10
2019-06-25T08:28:39.459Z,5.77
2019-06-25T08:30:43.479Z,8.83
2019-06-25T08:32:47.667Z,5.80
2019-06-25T08:34:51.821Z,5.37
2019-06-25T08:36:55.920Z,5.33
2019-06-25T08:39:00.033Z,5.80
2019-06-25T08:41:04.148Z,5.70
2019-06-25T08:43:08.263Z,8.00
2019-06-25T08:45:12.578Z,5.90
2019-06-25T08:47:16.772Z,5.20
2019-06-25T08:49:20.963Z,5.37
2019-06-25T08:51:25.331Z,4.93
2019-06-25T08:53:29.402Z,4.47
2019-06-25T08:55:33.520Z,5.30
2019-06-25T08:57:37.486Z,5.60
2019-06-25T08:59:41.065Z,4.77
2019-06-25T09:01:45.369Z,6.00
2019-06-25T09:03:49.332Z,4.50
2019-06-25T09:05:53.438Z,5.43
2019-06-25T09:07:57.579Z,5.10
2019-06-25T09:10:01.682Z,5.13
2019-06-25T09:12:06.104Z,5.80
2019-06-25T09:14:10.225Z,4.87
2019-06-25T09:16:14.520Z,5.10
2019-06-25T09:18:18.667Z,5.30
2019-06-25T09:20:22.848Z,5.13
2019-06-25T09:22:26.774Z,5.33
2019-06-25T09:24:30.871Z,5.40
2019-06-25T09:26:34.958Z,5.63
2019-06-25T09:28:39.062Z,5.60
2019-06-25T09:30:43.181Z,5.30
2019-06-25T09:32:47.385Z,5.70
2019-06-25T09:34:51.519Z,5.27
2019-06-25T09:36:55.519Z,5.87
2019-06-25T09:38:59.712Z,5.10
2019-06-25T09:41:02.712Z,5.20
2019-06-25T09:43:05.684Z,4.20
2019-06-25T09:45:08.571Z,4.90
2019-06-25T09:47:12.813Z,4.50
2019-06-25T09:49:17.407Z,4.43
2019-06-25T09:51:21.568Z,4.60
2019-06-25T09:53:25.617Z,4.93
2019-06-25T09:55:29.725Z,4.53
2019-06-25T09:57:33.841Z,4.80
2019-06-25T09:59:37.895Z,5.00
2019-06-25T10:01:45.563Z,4.43
2019-06-25T10:03:47.702Z,4.90
2019-06-25T10:05:51.984Z,4.83
2019-06-25T10:07:56.170Z,4.57
2019-06-25T10:10:00.264Z,4.33
2019-06-25T10:12:04.764Z,4.60
2019-06-25T10:14:08.872Z,4.60
2019-06-25T10:16:12.873Z,5.00
2019-06-25T10:18:17.113Z,5.33
2019-06-25T10:20:21.056Z,4.67
2019-06-25T10:22:25.307Z,4.30
2019-06-25T10:24:29.531Z,4.53
2019-06-25T10:26:33.666Z,4.33
2019-06-25T10:28:39.761Z,4.20
2019-06-25T10:30:49.724Z,4.40
2019-06-25T10:32:53.776Z,6.50
2019-06-25T10:35:01.392Z,4.90
2019-06-25T10:37:03.630Z,4.40
2019-06-25T10:39:08.674Z,5.23
2019-06-25T10:41:13.457Z,4.60
2019-06-25T10:43:17.588Z,4.10
2019-06-25T10:45:22.009Z,4.37
2019-06-25T10:47:26.987Z,4.80
2019-06-25T10:49:31.149Z,4.40
2019-06-25T10:51:35.218Z,4.70
2019-06-25T10:53:39.260Z,4.33
2019-06-25T10:55:43.585Z,4.37
2019-06-25T10:57:47.668Z,4.30
2019-06-25T10:59:51.887Z,3.80
2019-06-25T11:01:55.990Z,4.10
2019-06-25T11:03:59.959Z,4.20
2019-06-25T11:06:06.294Z,4.30
2019-06-25T11:08:09.781Z,4.50
2019-06-25T11:10:14.135Z,4.17
2019-06-25T11:12:19.700Z,4.00
2019-06-25T11:14:23.958Z,4.50
2019-06-25T11:16:27.973Z,4.43
2019-06-25T11:18:32.039Z,4.30
2019-06-25T11:20:36.475Z,4.10
2019-06-25T11:22:40.708Z,4.80
2019-06-25T11:24:47.038Z,4.40
2019-06-25T11:26:52.841Z,4.03
2019-06-25T11:28:57.109Z,4.10
2019-06-25T11:31:01.404Z,4.10
2019-06-25T11:33:06.054Z,4.20
2019-06-25T11:35:10.294Z,4.40
2019-06-25T11:37:14.619Z,4.63
2019-06-25T11:39:18.843Z,4.40
2019-06-25T11:41:24.133Z,4.23
2019-06-25T11:43:43.280Z,4.30
2019-06-25T11:45:33.971Z,4.37
2019-06-25T11:47:38.184Z,3.80
2019-06-25T11:49:42.307Z,3.97
2019-06-25T11:51:47.874Z,4.00
2019-06-25T11:53:51.932Z,4.00
2019-06-25T11:55:56.261Z,4.20
2019-06-25T11:58:00.697Z,3.97
2019-06-25T12:00:07.930Z,3.90
2019-06-25T12:02:12.005Z,3.63
2019-06-25T12:04:16.189Z,4.00
2019-06-25T12:06:33.005Z,3.70
2019-06-25T12:08:26.651Z,3.93
2019-06-25T12:10:30.969Z,3.87
2019-06-25T12:12:36.631Z,4.30
2019-06-25T12:14:40.819Z,4.60
2019-06-25T12:16:44.786Z,4.20
2019-06-25T12:18:48.754Z,4.33
2019-06-25T12:20:52.859Z,4.20
2019-06-25T12:22:56.965Z,4.40
2019-06-25T12:25:00.610Z,4.37
2019-06-25T12:27:04.409Z,3.87
2019-06-25T12:29:07.997Z,4.07
2019-06-25T12:31:11.819Z,8.70
2019-06-25T12:33:15.563Z,3.93
2019-06-25T12:35:20.817Z,4.07
2019-06-25T12:37:25.627Z,4.47
2019-06-25T12:39:29.231Z,4.40
2019-06-25T12:41:32.835Z,3.90
2019-06-25T12:43:36.425Z,4.40
2019-06-25T12:45:40.201Z,4.10
2019-06-25T12:47:43.920Z,3.37
2019-06-25T12:49:47.816Z,3.83
2019-06-25T12:51:51.508Z,3.70
2019-06-25T12:53:55.163Z,4.03
2019-06-25T12:55:58.781Z,4.10
2019-06-25T12:58:02.431Z,4.30
2019-06-25T13:00:07.771Z,4.30
2019-06-25T13:02:11.520Z,3.90
2019-06-25T13:04:15.115Z,3.90
2019-06-25T13:06:18.874Z,4.00
2019-06-25T13:08:22.456Z,4.13
2019-06-25T13:10:39.804Z,3.67
2019-06-25T13:12:31.591Z,4.67
2019-06-25T13:14:35.382Z,3.77
2019-06-25T13:16:39.009Z,3.97
2019-06-25T13:18:42.665Z,3.57
2019-06-25T13:20:46.429Z,3.87
2019-06-25T13:22:50.087Z,4.20
2019-06-25T13:24:53.679Z,3.80
2019-06-25T13:26:57.316Z,4.10
2019-06-25T13:29:01.009Z,3.67
2019-06-25T13:31:04.770Z,3.83
2019-06-25T13:33:08.420Z,3.80
2019-06-25T13:35:12.567Z,3.50
2019-06-25T13:37:16.262Z,3.33
2019-06-25T13:39:19.837Z,3.80
2019-06-25T13:41:23.518Z,3.60
2019-06-25T13:43:27.178Z,3.60
2019-06-25T13:45:30.969Z,3.90
2019-06-25T13:47:34.856Z,3.37
2019-06-25T13:49:38.459Z,3.80
2019-06-25T13:51:42.145Z,3.40
2019-06-25T13:53:45.821Z,4.00
2019-06-25T13:55:49.562Z,3.40
2019-06-25T13:57:53.327Z,3.33
2019-06-25T13:59:56.993Z,3.27
2019-06-25T14:02:00.583Z,3.30
2019-06-25T14:04:05.790Z,3.80
2019-06-25T14:06:09.540Z,3.67
2019-06-25T14:08:13.986Z,3.70
2019-06-25T14:10:18.206Z,3.37
2019-06-25T14:12:21.908Z,3.23
2019-06-25T14:14:25.514Z,3.30
2019-06-25T14:16:29.194Z,4.13
2019-06-25T14:18:32.843Z,3.80
2019-06-25T14:20:36.758Z,3.40
2019-06-25T14:22:40.532Z,3.57
2019-06-25T14:24:44.164Z,3.47
2019-06-25T14:26:47.803Z,3.90
2019-06-25T14:28:51.573Z,3.60
2019-06-25T14:30:55.322Z,3.97
2019-06-25T14:33:00.043Z,4.13
2019-06-25T14:35:05.193Z,3.40
2019-06-25T14:37:08.828Z,3.80
2019-06-25T14:39:12.489Z,4.07
2019-06-25T14:41:16.135Z,3.93
2019-06-25T14:43:19.821Z,4.10
2019-06-25T14:45:23.747Z,4.30
2019-06-25T14:47:27.438Z,3.70
2019-06-25T14:49:31.197Z,4.20
2019-06-25T14:51:34.786Z,4.10
2019-06-25T14:53:38.643Z,3.90
2019-06-25T14:55:42.311Z,4.30
2019-06-25T14:57:46.040Z,3.63
2019-06-25T14:59:49.689Z,3.90
2019-06-25T15:01:53.357Z,3.60
2019-06-25T15:03:56.996Z,4.80
2019-06-25T15:06:00.899Z,3.90
2019-06-25T15:08:04.709Z,4.00
2019-06-25T15:10:09.424Z,4.30
2019-06-25T15:12:13.097Z,3.57
2019-06-25T15:14:17.299Z,3.63
2019-06-25T15:16:20.943Z,3.80
2019-06-25T15:18:26.579Z,4.43
2019-06-25T15:20:30.264Z,3.77
2019-06-25T15:22:33.989Z,3.70
2019-06-25T15:24:39.214Z,4.20
2019-06-25T15:26:43.002Z,4.05
2019-06-25T15:28:46.702Z,4.40
2019-06-25T15:30:50.282Z,4.00
2019-06-25T15:32:54.064Z,4.23
2019-06-25T15:34:57.842Z,4.90
2019-06-25T15:37:01.496Z,4.10
2019-06-25T15:39:07.981Z,4.77
2019-06-25T15:41:11.637Z,4.00
2019-06-25T15:43:15.447Z,4.13
2019-06-25T15:45:19.162Z,3.60
2019-06-25T15:47:22.894Z,5.00
2019-06-25T15:49:26.882Z,3.90
2019-06-25T15:51:30.455Z,4.63
2019-06-25T15:53:34.195Z,4.00
2019-06-25T15:55:37.778Z,4.23
2019-06-25T15:57:41.457Z,5.23
2019-06-25T15:59:45.201Z,5.10
2019-06-25T16:01:48.886Z,5.20
2019-06-25T16:03:52.599Z,4.70
2019-06-25T16:05:56.401Z,4.70
2019-06-25T16:08:00.071Z,3.77
2019-06-25T16:10:05.237Z,3.90
2019-06-25T16:12:08.981Z,4.07
2019-06-25T16:14:12.657Z,4.30
2019-06-25T16:16:16.374Z,4.20
2019-06-25T16:18:20.180Z,3.70
2019-06-25T16:20:23.886Z,4.13
2019-06-25T16:22:27.713Z,3.67
2019-06-25T16:24:31.346Z,4.00
2019-06-25T16:26:35.076Z,4.10
2019-06-25T16:28:38.811Z,4.33
2019-06-25T16:30:42.497Z,4.30
2019-06-25T16:32:46.262Z,4.23
2019-06-25T16:34:49.982Z,4.47
2019-06-25T16:36:53.708Z,5.77
2019-06-25T16:38:57.307Z,4.33
2019-06-25T16:41:01.081Z,4.00
2019-06-25T16:43:05.279Z,4.13
2019-06-25T16:45:09.982Z,3.90
2019-06-25T16:47:13.839Z,3.60
2019-06-25T16:49:17.898Z,3.60
2019-06-25T16:51:21.838Z,3.63
2019-06-25T16:53:25.588Z,4.07
2019-06-25T16:55:29.548Z,4.17
2019-06-25T16:57:33.559Z,4.07
2019-06-25T16:59:37.700Z,4.10
2019-06-25T17:01:41.670Z,4.10
2019-06-25T17:03:45.358Z,3.20
2019-06-25T17:05:49.440Z,3.77
2019-06-25T17:07:53.437Z,3.63
2019-06-25T17:09:57.255Z,3.80
2019-06-25T17:12:00.861Z,3.60
2019-06-25T17:14:04.551Z,3.80
2019-06-25T17:16:22.540Z,3.57
2019-06-25T17:18:13.616Z,3.90
2019-06-25T17:20:17.665Z,3.80
2019-06-25T17:22:21.388Z,3.60
2019-06-25T17:24:25.088Z,3.40
2019-06-25T17:26:28.697Z,4.10
2019-06-25T17:28:32.463Z,4.20
2019-06-25T17:30:36.151Z,3.70
2019-06-25T17:32:39.928Z,4.30
2019-06-25T17:34:43.506Z,3.70
2019-06-25T17:36:47.152Z,4.10
2019-06-25T17:38:50.943Z,4.57
2019-06-25T17:40:55.550Z,3.77
2019-06-25T17:42:59.166Z,3.67
2019-06-25T17:45:04.532Z,4.37
2019-06-25T17:47:08.099Z,3.70
2019-06-25T17:49:11.729Z,4.27
2019-06-25T17:51:15.426Z,3.93
2019-06-25T17:53:19.071Z,3.93
2019-06-25T17:55:22.861Z,4.80
2019-06-25T17:57:26.552Z,4.13
2019-06-25T17:59:30.131Z,4.33
2019-06-25T18:01:33.842Z,3.97
2019-06-25T18:03:37.490Z,4.93
2019-06-25T18:05:41.179Z,4.70
2019-06-25T18:07:44.901Z,4.97
2019-06-25T18:09:48.938Z,4.73
2019-06-25T18:11:52.692Z,5.70
2019-06-25T18:13:56.368Z,4.87
2019-06-25T18:16:00.129Z,7.67
2019-06-25T18:18:05.879Z,5.70
2019-06-25T18:20:09.805Z,6.70
2019-06-25T18:22:13.504Z,4.77
2019-06-25T18:24:20.456Z,4.93
2019-06-25T18:26:24.906Z,4.77
2019-06-25T18:28:28.708Z,5.77
2019-06-25T18:30:32.662Z,6.10
2019-06-25T18:32:36.322Z,9.70
2019-06-25T18:34:39.903Z,8.40
2019-06-25T18:36:43.597Z,6.20
2019-06-25T18:38:47.263Z,4.87
2019-06-25T18:40:50.879Z,5.77
2019-06-25T18:42:54.634Z,5.00
2019-06-25T18:45:04.313Z,5.00
2019-06-25T18:47:03.801Z,4.90
2019-06-25T18:49:07.382Z,5.10
2019-06-25T18:51:11.001Z,4.90
2019-06-25T18:53:14.695Z,5.13
2019-06-25T18:55:18.431Z,4.80
2019-06-25T18:57:22.136Z,5.80
2019-06-25T18:59:25.698Z,5.60
2019-06-25T19:01:29.711Z,5.70
2019-06-25T19:03:33.799Z,5.40
2019-06-25T19:05:37.466Z,7.13
2019-06-25T19:07:41.140Z,4.97
2019-06-25T19:09:44.841Z,4.87
2019-06-25T19:11:48.537Z,6.27
2019-06-25T19:13:53.556Z,5.40
2019-06-25T19:15:57.174Z,5.23
2019-06-25T19:18:00.897Z,5.43
2019-06-25T19:20:05.647Z,5.63
2019-06-25T19:22:09.424Z,5.97
2019-06-25T19:24:13.085Z,5.00
2019-06-25T19:26:16.783Z,5.33
2019-06-25T19:28:20.415Z,5.43
2019-06-25T19:30:24.144Z,5.47
2019-06-25T19:32:27.767Z,5.50
2019-06-25T19:34:31.427Z,5.53
2019-06-25T19:36:35.080Z,5.50
2019-06-25T19:38:38.928Z,6.17
2019-06-25T19:40:55.135Z,5.57
2019-06-25T19:42:47.861Z,6.17
2019-06-25T19:44:51.518Z,6.60
2019-06-25T19:46:55.087Z,5.93
2019-06-25T19:48:58.705Z,6.40
2019-06-25T19:51:02.364Z,4.83
2019-06-25T19:53:06.124Z,6.27
2019-06-25T19:55:09.963Z,5.83
2019-06-25T19:57:13.616Z,5.80
2019-06-25T19:59:17.464Z,6.20
2019-06-25T20:01:24.130Z,5.47
2019-06-25T20:03:26.494Z,6.43
2019-06-25T20:05:30.143Z,6.70
2019-06-25T20:07:33.857Z,6.20
2019-06-25T20:09:38.169Z,12.90
2019-06-25T20:11:41.752Z,7.07
2019-06-25T20:13:45.587Z,7.90
2019-06-25T20:15:50.581Z,6.60
2019-06-25T20:17:54.389Z,7.60
2019-06-25T20:19:58.025Z,6.37
2019-06-25T20:22:01.651Z,6.07
2019-06-25T20:24:05.463Z,6.07
2019-06-25T20:26:09.522Z,6.30
2019-06-25T20:28:15.272Z,6.57
2019-06-25T20:30:18.593Z,6.90
2019-06-25T20:32:22.176Z,6.47
2019-06-25T20:34:25.895Z,6.03
2019-06-25T20:36:29.498Z,6.47
2019-06-25T20:38:33.249Z,7.67
2019-06-25T20:40:37.044Z,7.87
2019-06-25T20:42:42.749Z,8.53
2019-06-25T20:44:46.421Z,7.13
2019-06-25T20:46:50.160Z,7.70
2019-06-25T20:48:55.001Z,7.37
2019-06-25T20:50:58.859Z,7.50
2019-06-25T20:53:02.482Z,8.30
2019-06-25T20:55:06.964Z,6.80
2019-06-25T20:57:10.684Z,6.93
2019-06-25T20:59:20.279Z,6.97
2019-06-25T21:01:23.866Z,6.67
2019-06-25T21:03:27.552Z,6.60
2019-06-25T21:05:32.840Z,7.00
2019-06-25T21:07:36.415Z,7.20
2019-06-25T21:09:40.114Z,6.80
2019-06-25T21:11:48.927Z,8.00
2019-06-25T21:13:49.089Z,7.20
2019-06-25T21:15:52.730Z,6.90
2019-06-25T21:17:56.456Z,7.67
2019-06-25T21:20:00.155Z,7.50
2019-06-25T21:22:03.968Z,7.83
2019-06-25T21:24:07.579Z,7.67
2019-06-25T21:26:11.166Z,7.63
2019-06-25T21:28:14.796Z,7.63
2019-06-25T21:30:19.376Z,7.20
2019-06-25T21:32:23.020Z,7.90
2019-06-25T21:34:26.702Z,7.20
2019-06-25T21:36:30.290Z,6.83
2019-06-25T21:38:33.936Z,7.40
2019-06-25T21:40:37.634Z,6.90
2019-06-25T21:42:41.294Z,7.00
2019-06-25T21:44:44.981Z,6.97
2019-06-25T21:46:48.549Z,7.50
2019-06-25T21:48:52.133Z,7.47
2019-06-25T21:50:55.767Z,6.63
2019-06-25T21:52:59.485Z,7.47
2019-06-25T21:55:03.266Z,7.17
2019-06-25T21:57:06.986Z,7.70
2019-06-25T21:59:10.706Z,7.30
2019-06-25T22:01:14.627Z,7.67
2019-06-25T22:03:18.320Z,8.20
2019-06-25T22:05:22.074Z,9.07
2019-06-25T22:07:25.807Z,7.60
2019-06-25T22:09:29.562Z,7.53
2019-06-25T22:11:33.125Z,7.13
2019-06-25T22:13:36.792Z,8.00
2019-06-25T22:15:41.654Z,7.50
2019-06-25T22:17:45.376Z,7.60
2019-06-25T22:19:49.061Z,7.67
2019-06-25T22:21:55.154Z,7.10
2019-06-25T22:23:58.726Z,7.60
2019-06-25T22:26:02.341Z,7.27
2019-06-25T22:28:06.081Z,8.23
2019-06-25T22:30:11.606Z,8.10
2019-06-25T22:32:15.203Z,8.60
2019-06-25T22:34:18.801Z,7.90
2019-06-25T22:36:22.572Z,7.40
2019-06-25T22:38:26.142Z,7.77
2019-06-25T22:40:29.838Z,7.87
2019-06-25T22:42:37.536Z,7.53
2019-06-25T22:44:38.694Z,7.43
2019-06-25T22:46:42.299Z,7.70
2019-06-25T22:48:45.959Z,7.60
2019-06-25T22:50:49.634Z,8.37
2019-06-25T22:52:53.214Z,7.80
2019-06-25T22:54:56.782Z,7.60
2019-06-25T22:57:00.856Z,7.80
2019-06-25T22:59:04.766Z,7.20
2019-06-25T23:01:08.490Z,7.50
2019-06-25T23:03:13.972Z,7.90
2019-06-25T23:05:17.679Z,7.77
2019-06-25T23:07:21.312Z,7.30
2019-06-25T23:09:24.964Z,8.17
2019-06-25T23:11:28.646Z,7.77
2019-06-25T23:13:32.179Z,7.80
2019-06-25T23:15:36.380Z,8.63
2019-06-25T23:17:40.092Z,8.40
2019-06-25T23:19:43.717Z,8.00
2019-06-25T23:21:47.395Z,8.00
2019-06-25T23:23:50.985Z,8.60
2019-06-25T23:25:54.678Z,7.73
2019-06-25T23:27:58.269Z,8.33
2019-06-25T23:30:01.886Z,8.00
2019-06-25T23:32:05.630Z,8.43
2019-06-25T23:34:09.359Z,8.63
2019-06-25T23:36:13.020Z,9.23
2019-06-25T23:38:16.612Z,8.27
2019-06-25T23:40:20.639Z,8.37
2019-06-25T23:42:24.342Z,8.90
2019-06-25T23:44:27.962Z,8.07
2019-06-25T23:46:31.638Z,7.97
2019-06-25T23:48:35.269Z,9.40
2019-06-25T23:50:38.919Z,8.63
2019-06-25T23:52:42.545Z,7.93
2019-06-25T23:54:46.193Z,8.70
2019-06-25T23:56:49.967Z,8.60
2019-06-25T23:58:53.617Z,8.67
